Time;durP1;ratioP1;P1;durP2;ratioP2;P2;SDS_P1;SDS_P2;PMS_P1;PMS_P2;Temp;Humidity;BMP_temperature;BMP_pressure;BME280_temperature;BME280_humidity;BME280_pressure;Samples;Min_cycle;Max_cycle;Signal;HPM_P1;HPM_P2
2021/10/06 00:02:26;;;;;;;3.78;0.90;;;;;;;10.75;100.00;96694.47;5019345;28;20199;-64
2021/10/06 00:05:12;;;;;;;7.40;1.00;;;;;;;10.73;100.00;96689.34;5014164;28;20124;-63
2021/10/06 00:07:58;;;;;;;4.13;0.77;;;;;;;10.90;100.00;96690.81;5022909;28;20047;-62
2021/10/06 00:10:44;;;;;;;3.35;1.05;;;;;;;10.93;100.00;96695.56;5021534;28;20492;-63
2021/10/06 00:13:30;;;;;;;5.20;0.90;;;;;;;10.80;100.00;96694.94;5022850;28;20401;-63
2021/10/06 00:16:17;;;;;;;2.45;0.90;;;;;;;10.73;100.00;96694.84;5027749;28;20041;-63
2021/10/06 00:19:03;;;;;;;5.05;0.90;;;;;;;10.76;98.88;96702.31;5028240;28;20842;-58
2021/10/06 00:21:49;;;;;;;3.03;0.60;;;;;;;10.77;99.12;96701.19;5021845;28;20048;-61
2021/10/06 00:24:35;;;;;;;2.10;0.70;;;;;;;10.85;96.74;96708.34;5021619;28;20688;-62
2021/10/06 00:27:20;;;;;;;6.00;1.00;;;;;;;10.61;98.59;96706.00;5016256;28;20048;-62
2021/10/06 00:30:06;;;;;;;2.22;0.90;;;;;;;10.63;100.00;96709.97;4999947;28;20124;-63
2021/10/06 00:32:52;;;;;;;3.42;0.80;;;;;;;10.68;98.17;96706.13;5023239;28;20133;-62
2021/10/06 00:35:38;;;;;;;2.20;0.80;;;;;;;10.57;97.61;96716.09;5022614;28;20080;-62
2021/10/06 00:38:24;;;;;;;8.00;0.80;;;;;;;10.60;97.97;96720.84;5017835;28;20040;-64
2021/10/06 00:41:10;;;;;;;1.63;0.85;;;;;;;10.62;98.08;96721.28;5017956;28;20041;-63
2021/10/06 00:43:56;;;;;;;1.67;0.77;;;;;;;10.58;98.64;96725.91;5023395;28;20621;-68
2021/10/06 00:46:42;;;;;;;2.92;0.70;;;;;;;10.48;99.15;96730.84;5026210;28;20655;-63
2021/10/06 00:49:27;;;;;;;2.58;0.82;;;;;;;10.59;97.75;96727.47;5024583;28;20441;-64
2021/10/06 00:52:16;;;;;;;3.67;0.70;;;;;;;10.48;97.06;96721.84;5022315;28;20046;-63
2021/10/06 00:55:02;;;;;;;2.58;0.70;;;;;;;10.46;96.62;96733.16;5019515;28;20037;-61
2021/10/06 00:57:48;;;;;;;1.25;0.65;;;;;;;10.40;97.47;96739.28;5022527;28;20046;-61
2021/10/06 01:00:34;;;;;;;3.55;0.60;;;;;;;10.35;96.86;96734.91;5033854;28;20032;-62
2021/10/06 01:03:21;;;;;;;3.58;0.93;;;;;;;10.46;96.36;96724.94;5009681;28;20037;-64
2021/10/06 01:06:07;;;;;;;1.90;0.65;;;;;;;10.31;94.69;96734.84;5015361;28;20045;-60
2021/10/06 01:08:52;;;;;;;3.55;0.80;;;;;;;10.38;94.72;96736.13;5017663;28;20466;-62
2021/10/06 01:11:39;;;;;;;3.83;0.70;;;;;;;10.41;92.92;96740.88;5018581;28;20041;-62
2021/10/06 01:14:25;;;;;;;2.45;0.80;;;;;;;10.36;94.87;96739.22;5013341;28;20118;-64
2021/10/06 01:17:11;;;;;;;2.17;0.70;;;;;;;10.41;94.92;96738.94;5012667;28;20041;-61
2021/10/06 01:19:57;;;;;;;1.42;0.60;;;;;;;10.27;95.32;96739.44;5018703;28;20048;-63
2021/10/06 01:22:43;;;;;;;4.20;0.90;;;;;;;10.26;95.23;96739.78;5018603;28;20042;-61
2021/10/06 01:25:29;;;;;;;2.08;0.73;;;;;;;10.33;95.08;96740.75;5016599;28;20049;-61
2021/10/06 01:28:14;;;;;;;1.13;0.57;;;;;;;10.19;96.27;96731.44;5006370;28;20523;-61
2021/10/06 01:31:00;;;;;;;2.97;0.80;;;;;;;10.06;96.71;96733.56;5019084;28;20048;-62
2021/10/06 01:33:46;;;;;;;4.80;0.70;;;;;;;9.97;97.76;96733.78;5012162;28;20085;-63
2021/10/06 01:36:32;;;;;;;3.47;0.75;;;;;;;10.02;98.32;96744.44;5011120;28;20049;-61
2021/10/06 01:39:19;;;;;;;3.75;0.90;;;;;;;10.00;99.00;96743.22;5002353;28;20033;-61
2021/10/06 01:42:05;;;;;;;3.78;0.80;;;;;;;9.97;99.82;96736.53;5012527;28;20048;-62
2021/10/06 01:44:51;;;;;;;1.42;0.50;;;;;;;10.01;99.75;96751.09;5015978;28;20045;-61
2021/10/06 01:47:36;;;;;;;3.00;0.60;;;;;;;9.88;99.69;96744.94;5014538;28;20053;-63
2021/10/06 01:50:24;;;;;;;1.30;0.50;;;;;;;9.92;100.00;96743.09;5009261;28;20847;-61
2021/10/06 01:53:13;;;;;;;7.03;0.68;;;;;;;9.89;99.81;96738.34;5011620;28;20537;-61
2021/10/06 01:55:58;;;;;;;3.50;0.93;;;;;;;9.83;98.76;96738.97;5012674;28;20609;-63
2021/10/06 01:58:47;;;;;;;2.35;0.60;;;;;;;9.80;97.91;96745.19;5024683;28;20073;-62
2021/10/06 02:01:33;;;;;;;3.60;0.70;;;;;;;9.87;97.74;96750.81;5004690;28;20053;-62
2021/10/06 02:04:19;;;;;;;1.70;0.50;;;;;;;9.92;96.56;96743.09;4996036;28;20292;-62
2021/10/06 02:07:04;;;;;;;5.25;0.80;;;;;;;9.91;98.08;96741.50;5022294;28;20508;-61
2021/10/06 02:09:50;;;;;;;1.45;0.57;;;;;;;9.93;98.22;96741.94;5020961;28;20053;-61
2021/10/06 02:12:37;;;;;;;3.75;0.52;;;;;;;9.89;96.12;96735.59;5013880;28;20133;-60
2021/10/06 02:15:23;;;;;;;2.75;0.52;;;;;;;9.97;94.71;96741.22;4993171;28;20328;-61
2021/10/06 02:18:09;;;;;;;1.90;0.55;;;;;;;10.02;96.26;96733.50;5011717;28;20060;-61
2021/10/06 02:20:55;;;;;;;1.10;0.45;;;;;;;9.90;94.77;96750.06;5021351;28;20045;-61
2021/10/06 02:23:41;;;;;;;2.63;0.63;;;;;;;9.87;96.73;96748.84;5022371;28;20045;-62
2021/10/06 02:26:26;;;;;;;1.63;0.50;;;;;;;9.74;96.68;96758.34;5016897;28;20072;-60
2021/10/06 02:29:12;;;;;;;3.25;0.60;;;;;;;9.69;96.63;96753.97;5021833;28;20565;-62
2021/10/06 02:31:58;;;;;;;4.88;0.63;;;;;;;9.77;96.80;96758.41;5025778;28;20053;-61
2021/10/06 02:34:44;;;;;;;2.33;0.52;;;;;;;9.85;96.77;96756.63;5024640;28;20037;-62
2021/10/06 02:37:29;;;;;;;3.72;0.80;;;;;;;9.79;96.21;96766.25;5003765;28;20048;-63
2021/10/06 02:40:17;;;;;;;2.47;0.60;;;;;;;9.74;97.50;96769.28;5012441;28;20054;-61
2021/10/06 02:43:03;;;;;;;0.93;0.50;;;;;;;9.68;97.17;96759.78;5020601;28;20042;-60
2021/10/06 02:45:49;;;;;;;1.30;0.60;;;;;;;9.77;97.21;96769.34;5025114;28;20037;-63
2021/10/06 02:48:34;;;;;;;2.17;0.70;;;;;;;9.76;97.18;96770.53;5014565;28;20521;-63
2021/10/06 02:51:20;;;;;;;1.73;0.60;;;;;;;9.84;96.13;96779.66;4988353;28;20091;-61
2021/10/06 02:54:06;;;;;;;2.70;0.68;;;;;;;9.82;95.75;96776.50;4999539;28;20045;-61
2021/10/06 02:56:51;;;;;;;2.88;0.60;;;;;;;9.86;95.18;96777.34;5014847;28;20072;-64
2021/10/06 02:59:37;;;;;;;3.67;0.65;;;;;;;9.71;95.82;96765.34;5013222;28;20041;-63
2021/10/06 03:02:23;;;;;;;5.50;0.88;;;;;;;9.73;96.07;96775.91;5018392;28;20894;-63
2021/10/06 03:05:10;;;;;;;2.28;0.50;;;;;;;9.61;96.34;96770.56;4988824;28;20072;-64
2021/10/06 03:07:56;;;;;;;1.75;0.68;;;;;;;9.70;96.11;96777.41;4997244;28;20054;-62
2021/10/06 03:10:42;;;;;;;1.98;0.60;;;;;;;9.70;96.54;96784.84;5009543;28;20046;-62
2021/10/06 03:13:28;;;;;;;4.03;0.50;;;;;;;9.69;96.24;96778.56;5009037;28;20049;-62
2021/10/06 03:16:14;;;;;;;1.63;0.88;;;;;;;9.72;95.75;96783.34;5009419;28;20053;-62
2021/10/06 03:18:59;;;;;;;3.10;0.88;;;;;;;9.73;95.90;96790.38;5013860;28;20056;-62
2021/10/06 03:21:45;;;;;;;2.05;0.50;;;;;;;9.84;94.55;96787.88;5016912;28;20048;-62
2021/10/06 03:24:31;;;;;;;1.85;0.70;;;;;;;9.95;93.60;96790.81;5021263;28;20045;-62
2021/10/06 03:27:16;;;;;;;2.10;0.85;;;;;;;9.93;93.61;96790.38;5013998;28;20041;-64
2021/10/06 03:30:08;;;;;;;3.33;0.70;;;;;;;9.90;93.31;96791.91;5019447;28;20677;-61
2021/10/06 03:32:54;;;;;;;1.52;0.45;;;;;;;9.81;94.72;96782.31;5021577;28;20141;-61
2021/10/06 03:35:40;;;;;;;1.88;0.65;;;;;;;9.85;94.61;96788.66;5017431;28;20129;-64
2021/10/06 03:38:26;;;;;;;1.75;0.60;;;;;;;9.80;94.66;96788.97;5009370;28;20084;-64
2021/10/06 03:41:11;;;;;;;5.40;0.95;;;;;;;9.76;95.39;96795.13;5038658;23;20140;-61
2021/10/06 03:43:58;;;;;;;3.08;0.60;;;;;;;9.85;94.67;96789.47;5029550;28;20456;-56
2021/10/06 03:46:44;;;;;;;3.20;0.60;;;;;;;9.71;96.53;96794.63;5058296;28;20626;-59
2021/10/06 03:49:29;;;;;;;2.50;0.57;;;;;;;9.73;96.77;96808.75;5039941;28;20048;-56
2021/10/06 03:52:15;;;;;;;3.83;1.15;;;;;;;9.66;97.09;96806.63;5054960;28;20048;-60
2021/10/06 03:55:01;;;;;;;0.98;0.60;;;;;;;9.55;98.70;96800.94;5058876;28;20047;-61
2021/10/06 03:57:47;;;;;;;4.57;0.85;;;;;;;9.50;98.93;96809.41;5057694;28;20052;-57
2021/10/06 04:00:33;;;;;;;2.05;0.60;;;;;;;9.42;99.96;96817.81;5048682;28;20045;-60
2021/10/06 04:03:19;;;;;;;2.47;0.65;;;;;;;9.48;98.88;96817.19;5046155;28;20049;-60
2021/10/06 04:06:05;;;;;;;3.67;1.10;;;;;;;9.51;99.56;96826.63;5044753;28;20045;-60
2021/10/06 04:08:50;;;;;;;8.60;2.45;;;;;;;9.67;97.76;96824.63;5065038;28;20040;-58
2021/10/06 04:11:36;;;;;;;1.55;0.70;;;;;;;9.81;96.83;96824.13;5047444;28;20041;-56
2021/10/06 04:14:22;;;;;;;1.40;0.60;;;;;;;9.72;97.71;96826.28;5030109;28;20517;-61
2021/10/06 04:17:08;;;;;;;2.10;0.57;;;;;;;9.57;100.00;96828.72;5066119;28;20074;-61
2021/10/06 04:19:54;;;;;;;3.60;0.95;;;;;;;9.54;100.00;96836.81;5061160;28;20682;-56
2021/10/06 04:22:40;;;;;;;3.00;0.77;;;;;;;9.59;100.00;96833.03;5062524;28;20506;-61
2021/10/06 04:25:26;;;;;;;2.90;0.88;;;;;;;9.50;100.00;96831.28;5049334;28;20387;-59
2021/10/06 04:28:12;;;;;;;0.80;0.70;;;;;;;9.43;100.00;96844.78;5054610;28;20126;-62
2021/10/06 04:30:58;;;;;;;3.20;0.60;;;;;;;9.38;100.00;96839.59;5055819;28;20052;-58
2021/10/06 04:33:43;;;;;;;1.90;0.90;;;;;;;9.36;100.00;96850.09;5061420;28;20048;-62
2021/10/06 04:36:29;;;;;;;3.72;0.90;;;;;;;9.41;100.00;96849.81;5053349;28;20142;-62
2021/10/06 04:39:16;;;;;;;1.67;0.75;;;;;;;9.50;100.00;96855.09;5029681;28;20044;-58
2021/10/06 04:42:02;;;;;;;2.50;0.60;;;;;;;9.63;100.00;96855.78;5044000;28;20153;-62
2021/10/06 04:44:49;;;;;;;4.40;1.08;;;;;;;9.61;100.00;96858.09;5060900;28;20126;-63
2021/10/06 04:47:34;;;;;;;20.55;9.93;;;;;;;9.51;100.00;96859.44;5078024;28;20050;-62
2021/10/06 04:50:22;;;;;;;6.97;1.70;;;;;;;9.33;100.00;96854.34;5063363;28;20083;-62
2021/10/06 04:53:08;;;;;;;6.32;1.83;;;;;;;9.25;100.00;96859.97;5082227;28;20040;-63
2021/10/06 04:55:54;;;;;;;4.90;0.90;;;;;;;9.16;100.00;96857.44;5078694;28;20080;-62
2021/10/06 04:58:40;;;;;;;3.63;0.85;;;;;;;9.12;100.00;96859.28;5076994;28;20052;-62
2021/10/06 05:01:25;;;;;;;1.30;0.60;;;;;;;9.10;100.00;96861.59;5078432;28;20074;-61
2021/10/06 05:04:11;;;;;;;3.33;0.93;;;;;;;9.00;100.00;96854.69;5059109;28;20053;-62
2021/10/06 05:06:56;;;;;;;4.47;1.38;;;;;;;9.04;100.00;96861.06;5069548;28;20045;-61
2021/10/06 05:09:42;;;;;;;3.15;1.02;;;;;;;9.27;100.00;96871.34;5082740;28;20055;-63
2021/10/06 05:12:28;;;;;;;3.90;1.23;;;;;;;9.33;100.00;96875.41;5057126;28;20053;-61
2021/10/06 05:15:14;;;;;;;4.55;1.27;;;;;;;9.35;100.00;96876.63;5054513;28;20047;-60
2021/10/06 05:17:59;;;;;;;3.50;1.40;;;;;;;9.39;100.00;96882.19;5063157;28;20051;-60
2021/10/06 05:20:45;;;;;;;3.33;1.38;;;;;;;9.48;100.00;96882.00;5063811;28;20071;-62
2021/10/06 05:23:31;;;;;;;5.18;1.33;;;;;;;9.66;100.00;96875.00;5055222;28;20581;-59
2021/10/06 05:26:16;;;;;;;3.97;1.10;;;;;;;9.59;99.30;96879.53;5059272;28;20043;-59
2021/10/06 05:29:03;;;;;;;4.75;0.70;;;;;;;9.62;98.48;96873.34;5059909;28;20043;-62
2021/10/06 05:31:49;;;;;;;7.93;3.63;;;;;;;9.52;97.58;96878.19;5046398;28;20071;-60
2021/10/06 05:34:35;;;;;;;1.48;0.70;;;;;;;9.52;97.51;96882.88;5064812;28;20137;-61
2021/10/06 05:37:20;;;;;;;1.08;0.65;;;;;;;9.45;97.17;96880.75;5060185;28;20488;-60
2021/10/06 05:40:07;;;;;;;5.95;0.90;;;;;;;9.47;96.35;96885.88;5059755;28;20040;-61
2021/10/06 05:42:52;;;;;;;2.65;0.82;;;;;;;9.48;96.78;96884.75;5051728;28;20107;-58
2021/10/06 05:45:39;;;;;;;4.50;0.73;;;;;;;9.51;94.91;96884.03;5057267;28;20041;-60
2021/10/06 05:48:25;;;;;;;2.45;0.70;;;;;;;9.47;94.71;96883.97;5049234;28;20059;-59
2021/10/06 05:51:10;;;;;;;3.03;0.77;;;;;;;9.61;93.78;96885.44;5043738;28;20051;-60
2021/10/06 05:53:56;;;;;;;3.08;0.70;;;;;;;9.72;93.92;96884.53;5071273;28;20090;-60
2021/10/06 05:56:42;;;;;;;1.02;0.70;;;;;;;9.81;94.23;96884.31;5059423;28;20064;-61
2021/10/06 05:59:28;;;;;;;4.57;0.88;;;;;;;9.81;94.54;96895.25;5049027;28;20104;-61
2021/10/06 06:02:13;;;;;;;8.05;4.80;;;;;;;9.64;95.44;96901.13;5059112;28;20425;-58
2021/10/06 06:04:59;;;;;;;4.13;1.15;;;;;;;9.60;95.06;96894.75;5069504;28;20074;-56
2021/10/06 06:07:45;;;;;;;2.70;0.80;;;;;;;9.50;95.81;96907.06;5074534;28;20472;-59
2021/10/06 06:10:31;;;;;;;4.35;0.80;;;;;;;9.54;95.89;96906.00;5061874;28;20190;-59
2021/10/06 06:13:17;;;;;;;1.20;0.68;;;;;;;9.43;95.41;96904.16;5033163;28;20533;-61
2021/10/06 06:16:04;;;;;;;3.75;1.65;;;;;;;9.35;95.06;96898.50;5054899;28;20927;-62
2021/10/06 06:18:49;;;;;;;2.53;1.00;;;;;;;9.40;95.86;96911.13;5069350;28;20040;-60
2021/10/06 06:21:35;;;;;;;2.38;0.98;;;;;;;9.53;94.72;96904.41;5062760;28;20139;-58
2021/10/06 06:24:21;;;;;;;5.07;0.90;;;;;;;9.65;94.02;96905.44;5051799;28;20139;-58
2021/10/06 06:27:07;;;;;;;2.05;0.60;;;;;;;9.66;94.76;96912.50;5049182;28;20500;-60
2021/10/06 06:29:53;;;;;;;3.40;0.98;;;;;;;9.71;93.72;96918.50;5062886;28;20052;-61
2021/10/06 06:32:39;;;;;;;3.92;0.80;;;;;;;9.83;93.47;96922.25;5062991;28;20046;-60
2021/10/06 06:35:24;;;;;;;4.43;0.90;;;;;;;9.83;92.70;96925.81;5058876;28;20066;-58
2021/10/06 06:38:11;;;;;;;4.55;0.90;;;;;;;10.12;92.55;96932.69;5061083;28;20472;-61
2021/10/06 06:40:56;;;;;;;4.80;0.80;;;;;;;10.35;91.49;96940.22;5073451;28;20145;-60
2021/10/06 06:43:42;;;;;;;3.33;0.80;;;;;;;10.48;90.26;96936.22;5066796;28;20044;-61
2021/10/06 06:46:28;;;;;;;4.97;1.15;;;;;;;10.50;89.72;96944.09;5064175;28;20044;-62
2021/10/06 06:49:14;;;;;;;2.85;0.70;;;;;;;10.47;88.96;96939.31;5057766;28;20047;-63
2021/10/06 06:52:00;;;;;;;6.10;0.70;;;;;;;10.43;89.45;96949.41;5069219;28;20369;-61
2021/10/06 06:54:45;;;;;;;4.22;0.80;;;;;;;10.44;88.99;96949.06;5074969;28;20077;-61
2021/10/06 06:57:31;;;;;;;5.63;0.70;;;;;;;10.54;88.27;96944.94;5062929;28;20048;-57
2021/10/06 07:00:17;;;;;;;4.50;0.80;;;;;;;10.52;87.45;96948.03;5051120;28;20385;-58
2021/10/06 07:03:02;;;;;;;4.93;1.05;;;;;;;10.28;88.00;96954.56;5038549;28;20074;-62
2021/10/06 07:05:48;;;;;;;3.38;0.70;;;;;;;10.26;87.57;96951.38;5052819;28;20047;-60
2021/10/06 07:08:34;;;;;;;0.95;0.60;;;;;;;10.39;85.69;96954.81;5054178;28;20041;-61
2021/10/06 07:11:21;;;;;;;5.07;0.90;;;;;;;10.27;86.46;96963.91;5045595;28;20067;-61
2021/10/06 07:14:07;;;;;;;5.95;1.30;;;;;;;10.15;86.64;96955.81;5063441;28;20075;-61
2021/10/06 07:16:52;;;;;;;3.17;1.17;;;;;;;9.99;88.47;96958.59;5073818;28;20139;-60
2021/10/06 07:19:39;;;;;;;2.33;0.90;;;;;;;10.16;87.64;96968.38;5060042;28;20684;-61
2021/10/06 07:22:25;;;;;;;2.55;0.70;;;;;;;10.43;86.95;96969.38;5053059;28;20048;-61
2021/10/06 07:25:10;;;;;;;2.50;1.00;;;;;;;10.99;83.88;96981.03;5062092;28;20039;-61
2021/10/06 07:27:56;;;;;;;3.45;0.95;;;;;;;11.39;81.70;96988.03;5076452;28;20404;-61
2021/10/06 07:30:42;;;;;;;6.82;0.93;;;;;;;11.17;81.92;96989.59;5060041;28;20036;-60
2021/10/06 07:33:27;;;;;;;3.47;1.10;;;;;;;11.45;84.09;96990.13;5053814;28;20139;-61
2021/10/06 07:36:13;;;;;;;3.78;0.90;;;;;;;12.01;79.19;96987.91;5061523;28;20036;-60
2021/10/06 07:38:59;;;;;;;1.75;0.65;;;;;;;12.43;77.00;96997.94;5067434;28;20048;-61
2021/10/06 07:41:45;;;;;;;2.30;0.80;;;;;;;12.56;76.16;96991.03;5065415;28;20047;-58
2021/10/06 07:44:31;;;;;;;4.72;0.77;;;;;;;12.15;76.80;96993.59;5073774;28;20610;-60
2021/10/06 07:47:17;;;;;;;2.28;0.55;;;;;;;12.12;77.00;96999.84;5041862;28;20040;-59
2021/10/06 07:50:04;;;;;;;2.13;0.80;;;;;;;12.75;75.46;96989.34;5059363;28;20521;-63
2021/10/06 07:52:50;;;;;;;4.43;0.70;;;;;;;13.14;72.50;96994.47;5061008;28;20548;-61
2021/10/06 07:55:35;;;;;;;5.90;1.75;;;;;;;13.42;69.95;96999.53;5041838;28;20095;-61
2021/10/06 07:58:21;;;;;;;5.30;0.93;;;;;;;13.33;71.65;97002.59;5054577;28;20071;-62
2021/10/06 08:01:08;;;;;;;5.80;0.90;;;;;;;12.87;72.09;97007.53;5050785;28;20056;-62
2021/10/06 08:03:54;;;;;;;1.48;0.65;;;;;;;12.82;72.76;97019.66;5065680;28;20048;-62
2021/10/06 08:06:39;;;;;;;3.83;0.65;;;;;;;12.96;69.36;97021.78;5052837;28;20124;-60
2021/10/06 08:09:25;;;;;;;3.65;0.68;;;;;;;13.48;68.03;97030.25;5056014;28;20616;-61
2021/10/06 08:12:11;;;;;;;1.27;0.60;;;;;;;13.69;67.47;97029.66;5063438;28;20044;-60
2021/10/06 08:14:57;;;;;;;3.67;1.45;;;;;;;14.77;63.62;97036.78;5054599;28;20372;-60
2021/10/06 08:17:43;;;;;;;4.53;0.60;;;;;;;15.99;59.89;97036.34;5056352;28;20057;-61
2021/10/06 08:20:33;;;;;;;6.30;1.27;;;;;;;16.11;57.84;97030.41;5051135;28;20052;-60
2021/10/06 08:23:20;;;;;;;5.97;0.75;;;;;;;15.18;61.06;97030.22;5049758;28;20119;-60
2021/10/06 08:26:06;;;;;;;1.88;0.65;;;;;;;16.31;59.52;97030.78;5058510;28;20051;-62
2021/10/06 08:28:52;;;;;;;3.72;0.55;;;;;;;16.28;56.79;97036.31;5058683;28;20055;-59
2021/10/06 08:31:37;;;;;;;5.03;0.70;;;;;;;16.96;54.93;97042.56;5061738;28;20040;-60
2021/10/06 08:34:23;;;;;;;4.63;0.73;;;;;;;16.79;54.16;97046.91;5040410;28;20951;-58
2021/10/06 08:37:09;;;;;;;7.25;0.88;;;;;;;18.43;49.95;97051.16;5067369;28;20146;-61
2021/10/06 08:39:55;;;;;;;3.42;0.80;;;;;;;18.66;50.08;97054.13;5067168;28;20595;-59
2021/10/06 08:42:41;;;;;;;2.65;0.57;;;;;;;18.84;47.30;97056.72;5062764;28;20056;-60
2021/10/06 08:45:27;;;;;;;2.65;0.60;;;;;;;19.46;45.42;97063.16;5059054;28;20040;-63
2021/10/06 08:48:12;;;;;;;5.43;0.80;;;;;;;17.85;48.94;97071.03;5071949;28;20120;-63
2021/10/06 08:50:58;;;;;;;2.38;0.40;;;;;;;17.89;50.28;97073.78;5078254;28;20036;-61
2021/10/06 08:53:44;;;;;;;6.53;1.75;;;;;;;16.58;53.46;97077.38;5065782;28;20518;-60
2021/10/06 08:56:30;;;;;;;3.63;1.60;;;;;;;16.30;54.02;97086.50;5053925;28;20056;-61
2021/10/06 08:59:15;;;;;;;6.47;0.73;;;;;;;15.58;55.59;97092.66;5050779;28;20106;-60
2021/10/06 09:02:13;;;;;;;6.72;1.05;;;;;;;14.62;57.36;97093.00;5070617;28;20071;-61
2021/10/06 09:04:58;;;;;;;6.15;1.00;;;;;;;13.83;60.55;97087.63;5057709;28;20052;-62
2021/10/06 09:07:56;;;;;;;2.10;0.57;;;;;;;13.93;60.71;97102.63;5060607;28;20673;-62
2021/10/06 09:10:45;;;;;;;7.45;1.30;;;;;;;13.62;61.80;97101.16;5039668;28;20508;-61
2021/10/06 09:13:38;;;;;;;2.58;0.77;;;;;;;13.70;61.72;97103.63;5057492;28;20154;-60
2021/10/06 09:16:24;;;;;;;3.85;0.90;;;;;;;13.41;63.38;97107.97;5056955;28;20957;-61
2021/10/06 09:19:11;;;;;;;4.07;1.40;;;;;;;13.50;63.57;97119.50;5059337;28;20044;-62
2021/10/06 09:21:58;;;;;;;8.40;1.00;;;;;;;13.43;63.87;97105.66;5054327;28;20079;-59
2021/10/06 09:24:56;;;;;;;4.38;0.80;;;;;;;13.98;62.10;97107.81;5055119;28;20040;-62
2021/10/06 09:27:42;;;;;;;5.45;1.35;;;;;;;13.81;63.00;97100.16;5059581;28;20100;-60
2021/10/06 09:30:30;;;;;;;4.55;0.82;;;;;;;13.48;63.68;97107.28;5050071;28;20120;-60
2021/10/06 09:33:16;;;;;;;6.18;1.35;;;;;;;13.68;63.47;97096.88;5049095;28;20710;-60
2021/10/06 09:36:20;;;;;;;4.78;0.95;;;;;;;13.53;62.47;97104.97;5058727;28;20161;-59
2021/10/06 09:39:09;;;;;;;4.15;1.17;;;;;;;13.10;64.59;97106.41;5056411;28;20051;-60
2021/10/06 09:41:55;;;;;;;4.22;0.80;;;;;;;13.04;64.07;97105.94;5055637;28;20082;-60
2021/10/06 09:44:51;;;;;;;8.75;1.00;;;;;;;12.70;65.46;97116.84;5053651;28;20750;-60
2021/10/06 09:47:37;;;;;;;4.03;0.80;;;;;;;12.72;66.18;97108.25;5059134;28;20045;-59
2021/10/06 09:50:23;;;;;;;7.20;0.98;;;;;;;12.83;64.69;97111.94;5051274;28;20117;-60
2021/10/06 09:53:14;;;;;;;5.53;0.60;;;;;;;12.91;64.67;97112.81;5056404;28;20117;-61
2021/10/06 09:56:03;;;;;;;4.30;0.82;;;;;;;13.16;64.25;97118.66;5056110;28;20199;-61
2021/10/06 09:59:00;;;;;;;4.53;1.00;;;;;;;13.37;63.52;97124.44;5054687;28;20037;-60
2021/10/06 10:01:46;;;;;;;3.50;1.00;;;;;;;12.86;64.06;97129.66;5055426;28;20086;-61
2021/10/06 10:04:32;;;;;;;8.60;1.20;;;;;;;12.79;64.68;97133.09;5059560;28;20056;-63
2021/10/06 10:07:18;;;;;;;6.32;0.95;;;;;;;12.87;66.55;97123.75;5051861;28;20155;-60
2021/10/06 10:10:06;;;;;;;5.43;0.85;;;;;;;12.93;65.07;97127.78;5053698;28;20036;-63
2021/10/06 10:12:52;;;;;;;5.00;0.93;;;;;;;12.46;66.51;97122.75;5058011;28;20330;-61
2021/10/06 10:15:38;;;;;;;4.20;0.90;;;;;;;12.84;67.18;97126.47;5056276;28;20052;-61
2021/10/06 10:18:24;;;;;;;3.05;0.82;;;;;;;13.04;66.57;97124.41;5048725;28;20056;-58
2021/10/06 10:21:14;;;;;;;4.72;0.70;;;;;;;13.46;65.34;97129.66;5049231;28;20127;-61
2021/10/06 10:24:15;;;;;;;8.25;1.17;;;;;;;13.49;65.79;97128.13;5061432;28;20059;-60
2021/10/06 10:27:03;;;;;;;4.72;1.40;;;;;;;13.41;64.51;97131.97;5060558;28;20067;-61
2021/10/06 10:30:05;;;;;;;3.58;0.80;;;;;;;12.92;64.70;97122.66;5058986;28;20162;-59
2021/10/06 10:32:51;;;;;;;2.78;0.82;;;;;;;12.79;66.42;97127.59;5057381;28;20099;-62
2021/10/06 10:35:43;;;;;;;2.80;0.70;;;;;;;13.09;67.47;97124.06;5055439;28;20567;-61
2021/10/06 10:38:35;;;;;;;3.88;0.80;;;;;;;13.06;67.45;97122.06;5049639;28;20537;-60
2021/10/06 10:41:53;;;;;;;2.10;0.70;;;;;;;13.30;66.83;97120.78;5048178;28;20044;-61
2021/10/06 10:44:41;;;;;;;4.88;0.88;;;;;;;13.38;66.07;97120.53;5056754;28;20119;-63
2021/10/06 10:47:27;;;;;;;3.53;0.60;;;;;;;13.02;66.23;97119.28;5050690;28;20044;-61
2021/10/06 10:50:13;;;;;;;1.15;0.52;;;;;;;13.47;62.15;97116.69;5047813;28;20043;-62
2021/10/06 10:52:59;;;;;;;3.53;0.60;;;;;;;12.81;62.44;97111.50;5056679;28;20036;-60
2021/10/06 10:55:55;;;;;;;1.40;0.50;;;;;;;12.90;61.10;97103.00;5053531;28;20440;-64
2021/10/06 10:58:41;;;;;;;1.80;0.60;;;;;;;13.16;60.81;97104.91;5049991;28;20120;-62
2021/10/06 11:01:39;;;;;;;1.52;0.50;;;;;;;12.70;59.72;97114.13;5052295;28;20556;-62
2021/10/06 11:04:34;;;;;;;1.85;0.50;;;;;;;12.79;59.41;97105.59;5047856;28;20055;-59
2021/10/06 11:07:24;;;;;;;2.03;0.98;;;;;;;12.96;60.06;97102.31;5039256;28;20092;-62
2021/10/06 11:10:22;;;;;;;3.72;1.15;;;;;;;13.34;58.56;97105.16;5061554;28;20091;-61
2021/10/06 11:13:08;;;;;;;1.45;0.40;;;;;;;13.60;56.78;97093.28;5068837;28;20411;-62
2021/10/06 11:15:53;;;;;;;4.13;0.70;;;;;;;13.64;58.53;97096.84;5066037;28;20112;-62
2021/10/06 11:19:07;;;;;;;4.25;0.90;;;;;;;14.41;56.97;97101.88;5058355;28;20135;-59
2021/10/06 11:21:53;;;;;;;3.45;0.50;;;;;;;14.07;58.15;97104.75;5072148;28;20048;-60
2021/10/06 11:24:39;;;;;;;3.45;0.40;;;;;;;13.91;59.57;97107.75;5074985;28;20451;-60
2021/10/06 11:27:27;;;;;;;1.27;0.60;;;;;;;13.84;61.11;97111.22;5069136;28;20543;-61
2021/10/06 11:30:14;;;;;;;1.75;0.60;;;;;;;13.62;62.04;97103.91;5049142;28;20043;-58
2021/10/06 11:33:00;;;;;;;2.30;0.60;;;;;;;13.16;62.72;97115.91;5054977;28;20453;-58
2021/10/06 11:35:45;;;;;;;1.83;0.50;;;;;;;13.04;63.02;97110.66;5058962;28;20124;-59
2021/10/06 11:38:31;;;;;;;1.67;0.60;;;;;;;12.94;62.98;97110.13;5053891;28;20609;-59
2021/10/06 11:41:18;;;;;;;3.78;0.60;;;;;;;12.95;63.39;97105.44;5058062;28;20045;-62
2021/10/06 11:44:04;;;;;;;1.45;0.75;;;;;;;13.22;62.33;97108.09;5066423;28;20507;-64
2021/10/06 11:46:56;;;;;;;3.47;0.40;;;;;;;12.96;63.21;97102.31;5059526;28;20134;-60
2021/10/06 11:49:44;;;;;;;3.00;1.13;;;;;;;12.98;63.40;97113.72;5056048;28;20139;-59
2021/10/06 11:52:29;;;;;;;6.07;0.90;;;;;;;13.27;63.62;97103.09;5053016;28;20068;-61
2021/10/06 11:55:15;;;;;;;7.53;0.85;;;;;;;13.87;62.06;97104.16;5051903;28;20178;-60
2021/10/06 11:58:01;;;;;;;4.25;1.08;;;;;;;14.54;59.74;97098.41;5057775;28;20400;-63
2021/10/06 12:01:02;;;;;;;1.23;0.50;;;;;;;15.39;56.98;97093.78;5053201;28;20036;-62
2021/10/06 12:03:48;;;;;;;1.10;0.40;;;;;;;15.17;56.72;97097.66;5034170;28;20041;-61
2021/10/06 12:06:33;;;;;;;4.50;0.55;;;;;;;15.09;57.02;97096.81;5037125;28;20094;-63
2021/10/06 12:09:19;;;;;;;7.70;0.98;;;;;;;14.85;58.60;97096.28;5027494;28;20074;-58
2021/10/06 12:12:10;;;;;;;3.70;0.60;;;;;;;14.42;59.36;97086.91;5029719;28;20036;-63
2021/10/06 12:15:02;;;;;;;4.15;0.60;;;;;;;13.81;61.89;97089.16;5035534;28;20061;-60
2021/10/06 12:17:48;;;;;;;1.80;0.52;;;;;;;13.52;64.09;97097.91;5034572;28;20110;-62
2021/10/06 12:20:42;;;;;;;3.13;0.73;;;;;;;13.48;63.28;97101.78;5054023;28;20150;-60
2021/10/06 12:23:27;;;;;;;4.63;0.80;;;;;;;13.15;65.41;97092.31;5040643;28;20117;-60
2021/10/06 12:26:14;;;;;;;3.05;0.82;;;;;;;12.96;66.10;97090.50;5051152;28;20047;-61
2021/10/06 12:29:05;;;;;;;2.00;0.50;;;;;;;12.86;67.74;97096.66;5074584;28;20096;-64
2021/10/06 12:31:55;;;;;;;2.72;0.77;;;;;;;13.39;66.32;97104.81;5068884;28;20072;-61
2021/10/06 12:34:41;;;;;;;3.42;0.75;;;;;;;13.01;66.48;97092.94;5058963;28;20440;-60
2021/10/06 12:37:27;;;;;;;2.50;0.63;;;;;;;12.80;68.06;97090.69;5051850;28;20075;-63
2021/10/06 12:40:32;;;;;;;1.27;0.63;;;;;;;12.63;68.30;97101.06;5047777;28;20050;-62
2021/10/06 12:43:27;;;;;;;5.95;1.15;;;;;;;12.85;67.27;97087.63;5053911;28;20607;-60
2021/10/06 12:46:16;;;;;;;6.03;1.00;;;;;;;12.63;68.43;97094.78;5056260;28;20044;-59
2021/10/06 12:49:02;;;;;;;1.55;0.68;;;;;;;12.73;67.67;97091.41;5069519;28;20044;-60
2021/10/06 12:52:04;;;;;;;6.13;0.70;;;;;;;12.89;68.43;97088.47;5060099;28;20087;-60
2021/10/06 12:55:06;;;;;;;2.50;0.60;;;;;;;13.04;68.82;97096.91;5034885;28;20041;-60
2021/10/06 12:58:06;;;;;;;4.35;0.70;;;;;;;12.92;68.40;97095.94;5041633;28;20564;-60
2021/10/06 13:00:53;;;;;;;1.77;0.80;;;;;;;13.16;69.38;97093.91;5061901;28;20036;-60
2021/10/06 13:03:38;;;;;;;6.40;1.33;;;;;;;13.46;67.54;97087.63;5058653;28;20048;-59
2021/10/06 13:06:24;;;;;;;3.88;1.00;;;;;;;13.44;68.15;97093.50;5055523;28;20884;-61
2021/10/06 13:09:11;;;;;;;3.08;1.55;;;;;;;13.50;68.46;97082.94;5062273;28;20048;-62
2021/10/06 13:11:58;;;;;;;3.28;0.73;;;;;;;13.91;66.99;97082.97;5059077;28;20040;-60